createdAt,value
2017-05-25T07:00:21.236Z,1028.87
2017-05-25T07:01:23.296Z,1029.19
2017-05-25T07:02:24.965Z,1029.06
2017-05-25T07:03:26.676Z,1029.47
2017-05-25T07:04:28.367Z,1028.68
2017-05-25T07:05:30.094Z,1029.21
2017-05-25T07:06:31.811Z,1028.77
2017-05-25T07:07:33.536Z,1028.29
2017-05-25T07:08:35.272Z,1028.02
2017-05-25T07:09:37.012Z,1027.85
2017-05-25T07:10:38.802Z,1028.02
2017-05-25T07:11:40.513Z,1027.96
2017-05-25T07:12:42.394Z,1027.64
2017-05-25T07:13:44.207Z,1027.06
2017-05-25T07:14:45.929Z,1026.90
2017-05-25T07:15:47.701Z,1027.08
2017-05-25T07:16:49.501Z,1026.81
2017-05-25T07:17:51.205Z,1026.95
2017-05-25T07:19:32.490Z,1025.19
2017-05-25T07:20:34.183Z,1025.71
2017-05-25T07:21:35.945Z,1023.92
2017-05-25T07:22:37.623Z,1025.83
2017-05-25T07:23:39.440Z,1022.56
2017-05-25T07:24:41.222Z,1021.73
2017-05-25T07:25:43.016Z,1022.81
2017-05-25T07:26:44.668Z,1022.76
2017-05-25T07:27:46.363Z,1021.82
2017-05-25T07:28:48.054Z,1022.25
2017-05-25T07:29:49.809Z,1019.74
2017-05-25T07:30:51.513Z,1017.76
2017-05-25T07:31:53.191Z,1020.88
2017-05-25T07:32:54.880Z,1022.36
2017-05-25T07:33:56.605Z,1022.99
2017-05-25T07:34:58.381Z,1023.05
2017-05-25T07:36:00.035Z,1023.00
2017-05-25T07:37:01.734Z,1022.83
2017-05-25T07:38:03.437Z,1022.73
2017-05-25T07:39:05.104Z,1022.58
2017-05-25T07:40:06.916Z,1022.44
2017-05-25T07:41:08.611Z,1022.17
2017-05-25T07:42:10.311Z,1022.11
2017-05-25T07:43:12.049Z,1021.97
2017-05-25T07:44:13.775Z,1021.97
2017-05-25T07:45:15.569Z,1021.99
2017-05-25T07:46:17.299Z,1022.04
2017-05-25T07:47:18.992Z,1021.86
2017-05-25T07:48:20.652Z,1020.10
2017-05-25T07:49:22.295Z,1018.49
2017-05-25T07:50:24.054Z,1018.14
2017-05-25T07:51:25.695Z,1021.17
2017-05-25T07:52:27.359Z,1018.99
2017-05-25T07:53:28.984Z,1018.31
2017-05-25T07:54:30.701Z,1019.47
2017-05-25T07:55:32.341Z,1018.35
2017-05-25T07:56:34.000Z,1017.78
2017-05-25T07:57:35.652Z,1017.66
2017-05-25T07:58:37.349Z,1017.90
2017-05-25T07:59:39.000Z,1018.67
2017-05-25T08:00:40.712Z,1021.72
2017-05-25T08:01:42.397Z,1020.14
2017-05-25T08:02:44.035Z,1020.11
2017-05-25T08:03:45.760Z,1018.43
2017-05-25T08:04:47.458Z,1018.14
2017-05-25T08:05:49.212Z,1018.05
2017-05-25T08:06:50.862Z,1018.16
2017-05-25T08:07:52.581Z,1018.29
2017-05-25T08:08:54.236Z,1018.30
2017-05-25T08:09:56.015Z,1018.41
2017-05-25T08:10:57.689Z,1018.64
2017-05-25T08:11:59.332Z,1018.80
2017-05-25T08:13:01.012Z,1018.99
2017-05-25T08:14:02.716Z,1019.06
2017-05-25T08:15:04.371Z,1019.20
2017-05-25T08:16:06.028Z,1022.87
2017-05-25T08:17:07.753Z,1020.80
2017-05-25T08:18:09.466Z,1019.97
2017-05-25T08:19:11.167Z,1019.29
2017-05-25T08:20:12.842Z,1018.91
2017-05-25T08:21:14.515Z,1018.81
2017-05-25T08:22:16.173Z,1018.84
2017-05-25T08:23:17.893Z,1019.00
2017-05-25T08:24:19.652Z,1020.33
2017-05-25T08:25:21.297Z,1019.42
2017-05-25T08:26:23.025Z,1019.56
2017-05-25T08:27:24.702Z,1022.89
2017-05-25T08:28:26.389Z,1021.40
2017-05-25T08:29:28.161Z,1019.35
2017-05-25T08:30:29.859Z,1021.59
2017-05-25T08:31:31.539Z,1023.98
2017-05-25T08:32:33.224Z,1024.33
2017-05-25T08:33:34.885Z,1023.98
2017-05-25T08:34:36.615Z,1022.05
2017-05-25T08:35:38.264Z,1019.91
2017-05-25T08:36:39.958Z,1018.43
2017-05-25T08:37:41.673Z,1018.42
2017-05-25T08:38:43.426Z,1022.72
2017-05-25T08:39:45.141Z,1022.37
2017-05-25T08:40:47.495Z,1021.85
2017-05-25T08:41:49.182Z,1020.63
2017-05-25T08:42:50.834Z,1021.54
2017-05-25T08:43:52.639Z,1020.01
2017-05-25T08:44:54.433Z,1020.14
2017-05-25T08:45:56.095Z,1018.66
2017-05-25T08:46:57.848Z,1018.04
2017-05-25T08:47:59.556Z,1021.51
2017-05-25T08:49:01.330Z,1022.34
2017-05-25T08:50:03.079Z,1022.04
2017-05-25T08:51:04.777Z,1021.59
2017-05-25T08:52:06.590Z,1021.90
2017-05-25T08:53:08.296Z,1021.90
2017-05-25T08:54:10.046Z,1021.50
2017-05-25T08:55:11.800Z,1021.14
2017-05-25T08:56:13.506Z,1021.09
2017-05-25T08:57:15.283Z,1021.21
2017-05-25T08:58:17.094Z,1021.16
2017-05-25T08:59:18.834Z,1020.93
2017-05-25T09:00:20.529Z,1020.93
2017-05-25T09:01:22.239Z,1020.91
2017-05-25T09:02:24.015Z,1020.84
2017-05-25T09:03:25.744Z,1020.73
2017-05-25T09:04:27.604Z,1020.69
2017-05-25T09:06:09.324Z,1020.41
2017-05-25T09:07:11.081Z,1020.41
2017-05-25T09:08:12.755Z,1020.31
2017-05-25T09:09:14.435Z,1020.36
2017-05-25T09:10:16.203Z,1020.32
2017-05-25T09:11:17.924Z,1020.33
2017-05-25T09:12:19.671Z,1020.27
2017-05-25T09:13:21.348Z,1020.17
2017-05-25T09:14:22.992Z,1020.22
2017-05-25T09:15:24.778Z,1020.14
2017-05-25T09:16:26.553Z,1020.25
2017-05-25T09:17:28.244Z,1020.28
2017-05-25T09:18:29.978Z,1020.26
2017-05-25T09:19:31.691Z,1020.23
2017-05-25T09:20:33.323Z,1020.12
2017-05-25T09:21:35.124Z,1019.99
2017-05-25T09:22:36.802Z,1019.87
2017-05-25T09:23:38.562Z,1019.79
2017-05-25T09:24:40.321Z,1019.72
2017-05-25T09:25:41.991Z,1019.71
2017-05-25T09:26:43.703Z,1019.66
2017-05-25T09:27:45.456Z,1019.64
2017-05-25T09:28:47.229Z,1019.55
2017-05-25T09:29:48.922Z,1019.54
2017-05-25T09:30:50.590Z,1019.47
2017-05-25T09:31:52.238Z,1019.45
2017-05-25T09:32:53.959Z,1019.40
2017-05-25T09:33:55.717Z,1019.41
2017-05-25T09:34:57.518Z,1019.41
2017-05-25T09:35:59.244Z,1019.36
2017-05-25T09:37:00.879Z,1019.36
2017-05-25T09:38:02.526Z,1019.19
2017-05-25T09:39:04.172Z,1019.15
2017-05-25T09:40:05.915Z,1019.13
2017-05-25T09:41:07.591Z,1019.22
2017-05-25T09:42:09.288Z,1019.21
2017-05-25T09:43:10.942Z,1019.14
2017-05-25T09:44:12.615Z,1019.12
2017-05-25T09:45:14.305Z,1019.17
2017-05-25T09:46:15.973Z,1019.19
2017-05-25T09:47:17.622Z,1019.17
2017-05-25T09:48:19.334Z,1019.15
2017-05-25T09:49:20.970Z,1019.20
2017-05-25T09:50:22.679Z,1019.27
2017-05-25T09:51:24.330Z,1019.20
2017-05-25T09:52:26.003Z,1018.68
2017-05-25T09:53:27.757Z,1019.06
2017-05-25T09:54:29.451Z,1019.22
2017-05-25T09:55:31.081Z,1019.20
2017-05-25T09:56:32.826Z,1019.16
2017-05-25T09:58:14.066Z,1018.92
2017-05-25T09:59:15.763Z,1019.02
2017-05-25T10:00:17.413Z,1018.99
2017-05-25T10:01:19.147Z,1018.98
2017-05-25T10:02:20.819Z,1018.94
2017-05-25T10:03:22.522Z,1018.95
2017-05-25T10:04:24.265Z,1018.93
2017-05-25T10:05:26.005Z,1018.87
2017-05-25T10:06:27.703Z,1018.87
2017-05-25T10:07:29.396Z,1018.79
2017-05-25T10:08:31.086Z,1018.72
2017-05-25T10:09:32.769Z,1018.67
2017-05-25T10:10:34.562Z,1018.62
2017-05-25T10:11:36.269Z,1018.73
2017-05-25T10:12:37.935Z,1018.72
2017-05-25T10:13:39.662Z,1018.67
2017-05-25T10:14:41.361Z,1018.60
2017-05-25T10:15:43.119Z,1018.60
2017-05-25T10:16:44.941Z,1018.55
2017-05-25T10:17:46.671Z,1018.50
2017-05-25T10:19:27.962Z,1018.24
2017-05-25T10:20:29.625Z,1018.30
2017-05-25T10:21:31.334Z,1018.32
2017-05-25T10:22:32.988Z,1018.34
2017-05-25T10:23:34.709Z,1018.35
2017-05-25T10:24:36.403Z,1018.41
2017-05-25T10:25:38.101Z,1018.38
2017-05-25T10:26:39.837Z,1018.38
2017-05-25T10:27:41.482Z,1018.33
2017-05-25T10:28:43.185Z,1018.26
2017-05-25T10:29:44.922Z,1018.25
2017-05-25T10:30:46.597Z,1018.23
2017-05-25T10:31:48.286Z,1018.16
2017-05-25T10:32:49.998Z,1018.14
2017-05-25T10:33:51.686Z,1018.11
2017-05-25T10:34:53.471Z,1018.12
2017-05-25T10:35:55.161Z,1018.09
2017-05-25T10:36:56.875Z,1018.11
2017-05-25T10:37:58.562Z,1018.11
2017-05-25T10:39:00.313Z,1018.12
2017-05-25T10:40:02.116Z,1018.07
2017-05-25T10:41:03.811Z,1018.16
2017-05-25T10:42:05.567Z,1018.09
2017-05-25T10:43:07.334Z,1018.15
2017-05-25T10:44:09.053Z,1018.10
2017-05-25T10:45:10.734Z,1018.12
2017-05-25T10:46:12.676Z,1018.10
2017-05-25T10:47:14.430Z,1018.30
2017-05-25T10:48:16.259Z,1018.91
2017-05-25T10:49:17.965Z,1019.99
2017-05-25T10:50:19.729Z,1020.66
2017-05-25T10:51:21.377Z,1021.65
2017-05-25T10:52:23.075Z,1021.19
2017-05-25T10:53:24.829Z,1020.12
2017-05-25T10:54:26.544Z,1019.22
2017-05-25T10:55:28.319Z,1018.52
2017-05-25T10:56:29.966Z,1018.28
2017-05-25T10:57:31.718Z,1018.28
2017-05-25T10:58:33.383Z,1018.33
2017-05-25T10:59:35.082Z,1018.30
2017-05-25T11:00:36.818Z,1018.34
2017-05-25T11:01:38.528Z,1018.34
2017-05-25T11:02:40.202Z,1018.41
2017-05-25T11:03:41.832Z,1018.39
2017-05-25T11:04:43.498Z,1018.35
2017-05-25T11:05:45.225Z,1018.33
2017-05-25T11:06:46.895Z,1018.35
2017-05-25T11:07:48.603Z,1018.34
2017-05-25T11:08:50.224Z,1018.35
2017-05-25T11:09:51.886Z,1018.40
2017-05-25T11:10:53.576Z,1018.46
2017-05-25T11:11:55.250Z,1018.48
2017-05-25T11:12:56.976Z,1018.52
2017-05-25T11:13:58.630Z,1018.50
2017-05-25T11:15:00.386Z,1018.48
2017-05-25T11:16:02.059Z,1018.39
2017-05-25T11:17:03.746Z,1018.43
2017-05-25T11:18:05.443Z,1018.43
2017-05-25T11:19:07.129Z,1018.49
2017-05-25T11:20:08.830Z,1018.53
2017-05-25T11:21:10.530Z,1018.56
2017-05-25T11:22:12.238Z,1018.50
2017-05-25T11:23:13.946Z,1018.53
2017-05-25T11:24:15.706Z,1018.50
2017-05-25T11:25:17.337Z,1018.48
2017-05-25T11:26:19.000Z,1018.50
2017-05-25T11:27:20.690Z,1018.50
2017-05-25T11:28:22.322Z,1018.52
2017-05-25T11:29:24.013Z,1018.48
2017-05-25T11:30:25.690Z,1018.56
2017-05-25T11:31:27.440Z,1018.56
2017-05-25T11:32:29.282Z,1018.59
2017-05-25T11:33:30.933Z,1018.58
2017-05-25T11:34:32.618Z,1018.60
2017-05-25T11:35:34.285Z,1018.59
2017-05-25T11:36:35.978Z,1018.60
2017-05-25T11:37:37.697Z,1018.61
2017-05-25T11:38:39.346Z,1018.63
2017-05-25T11:39:41.070Z,1018.63
2017-05-25T11:40:42.743Z,1018.61
2017-05-25T11:41:44.522Z,1018.67
2017-05-25T11:42:46.230Z,1018.64
2017-05-25T11:43:47.901Z,1018.64
2017-05-25T11:44:49.553Z,1018.53
2017-05-25T11:45:51.288Z,1018.60
2017-05-25T11:46:53.048Z,1018.60
2017-05-25T11:47:54.753Z,1018.62
2017-05-25T11:48:56.361Z,1018.56
2017-05-25T11:49:58.114Z,1018.59
2017-05-25T11:50:59.836Z,1018.57
2017-05-25T11:52:01.643Z,1018.51
2017-05-25T11:53:03.323Z,1018.56
2017-05-25T11:54:05.010Z,1018.56
2017-05-25T11:55:06.723Z,1018.59
2017-05-25T11:56:08.403Z,1018.57
2017-05-25T11:57:10.507Z,1018.52
2017-05-25T11:58:12.205Z,1018.53
2017-05-25T11:59:13.994Z,1018.63
2017-05-25T12:00:15.767Z,1018.65
2017-05-25T12:01:17.507Z,1018.63
2017-05-25T12:02:19.292Z,1018.59
2017-05-25T12:03:21.083Z,1018.54
2017-05-25T12:04:22.826Z,1018.53
2017-05-25T12:05:24.574Z,1018.52
2017-05-25T12:06:26.319Z,1018.55
2017-05-25T12:07:28.115Z,1018.57
2017-05-25T12:08:29.900Z,1018.60
2017-05-25T12:09:31.687Z,1018.56
2017-05-25T12:10:33.417Z,1018.50
2017-05-25T12:11:35.117Z,1018.53
2017-05-25T12:12:36.967Z,1018.49
2017-05-25T12:13:38.761Z,1018.53
2017-05-25T12:14:40.474Z,1018.52
2017-05-25T12:15:42.232Z,1018.53
2017-05-25T12:16:44.049Z,1018.49
2017-05-25T12:17:45.771Z,1018.51
2017-05-25T12:18:47.505Z,1018.51
2017-05-25T12:19:49.189Z,1018.53
2017-05-25T12:20:50.863Z,1018.47
2017-05-25T12:21:52.553Z,1018.51
2017-05-25T12:22:54.295Z,1018.52
2017-05-25T12:23:56.019Z,1018.55
2017-05-25T12:24:57.726Z,1018.56
2017-05-25T12:25:59.432Z,1018.55
2017-05-25T12:27:01.115Z,1018.54
2017-05-25T12:28:02.875Z,1018.55
2017-05-25T12:29:04.571Z,1018.57
2017-05-25T12:30:06.253Z,1018.55
2017-05-25T12:31:08.004Z,1018.52
2017-05-25T12:32:09.699Z,1018.54
2017-05-25T12:33:11.459Z,1018.51
2017-05-25T12:34:13.158Z,1018.53
2017-05-25T12:35:14.876Z,1018.48
2017-05-25T12:36:16.610Z,1018.43
2017-05-25T12:37:18.326Z,1018.49
2017-05-25T12:38:20.056Z,1018.39
2017-05-25T12:39:21.870Z,1018.41
2017-05-25T12:40:23.576Z,1018.41
2017-05-25T12:41:25.277Z,1018.38
2017-05-25T12:42:26.998Z,1018.32
2017-05-25T12:43:28.841Z,1018.30
2017-05-25T12:44:30.632Z,1018.30
2017-05-25T12:46:11.945Z,1018.14
2017-05-25T12:47:13.703Z,1018.22
2017-05-25T12:48:15.464Z,1018.30
2017-05-25T12:49:17.176Z,1018.27
2017-05-25T12:50:18.936Z,1018.32
2017-05-25T12:51:20.727Z,1018.29
2017-05-25T12:52:22.433Z,1018.29
2017-05-25T12:53:24.117Z,1018.35
2017-05-25T12:54:25.786Z,1018.32
2017-05-25T12:55:27.478Z,1018.31
2017-05-25T12:56:29.254Z,1018.29
2017-05-25T12:57:30.966Z,1018.30
2017-05-25T12:58:32.684Z,1018.27
2017-05-25T12:59:34.359Z,1018.28
2017-05-25T13:00:36.000Z,1018.31
2017-05-25T13:01:37.707Z,1018.30
2017-05-25T13:02:39.430Z,1018.29
2017-05-25T13:03:41.099Z,1018.34
2017-05-25T13:04:42.765Z,1018.33
2017-05-25T13:05:44.448Z,1018.33
2017-05-25T13:06:46.288Z,1018.36
2017-05-25T13:07:48.024Z,1018.32
2017-05-25T13:08:49.798Z,1018.32
2017-05-25T13:09:51.572Z,1018.36
2017-05-25T13:10:53.254Z,1018.34
2017-05-25T13:11:55.017Z,1018.33
2017-05-25T13:12:56.704Z,1018.29
2017-05-25T13:13:58.490Z,1018.32
2017-05-25T13:15:00.339Z,1018.31
2017-05-25T13:16:02.028Z,1018.30
2017-05-25T13:17:03.865Z,1018.33
2017-05-25T13:18:05.554Z,1018.29
2017-05-25T13:19:07.207Z,1018.25
2017-05-25T13:20:08.936Z,1018.22
2017-05-25T13:21:10.698Z,1018.23
2017-05-25T13:22:12.372Z,1018.22
2017-05-25T13:23:14.051Z,1018.13
2017-05-25T13:24:15.785Z,1018.18
2017-05-25T13:25:17.572Z,1018.17
2017-05-25T13:26:19.332Z,1018.19
2017-05-25T13:27:20.993Z,1018.18
2017-05-25T13:28:22.697Z,1018.13
2017-05-25T13:29:24.455Z,1018.10
2017-05-25T13:30:26.158Z,1018.00
2017-05-25T13:31:27.861Z,1018.12
2017-05-25T13:32:29.618Z,1018.16
2017-05-25T13:33:31.287Z,1018.24
2017-05-25T13:34:33.014Z,1018.29
2017-05-25T13:35:34.727Z,1018.33
2017-05-25T13:36:36.467Z,1018.24
2017-05-25T13:37:38.218Z,1018.24
2017-05-25T13:38:39.907Z,1018.29
2017-05-25T13:39:41.677Z,1018.22
2017-05-25T13:40:43.396Z,1018.20
2017-05-25T13:41:45.135Z,1018.09
2017-05-25T13:42:46.933Z,1018.03
2017-05-25T13:43:48.690Z,1018.12
2017-05-25T13:44:50.424Z,1018.07
2017-05-25T13:45:52.154Z,1018.08
2017-05-25T13:46:53.863Z,1018.10
2017-05-25T13:47:55.561Z,1018.06
2017-05-25T13:48:57.251Z,1018.08
2017-05-25T13:49:58.986Z,1017.98
2017-05-25T13:51:00.744Z,1017.95
2017-05-25T13:52:02.438Z,1017.93
2017-05-25T13:53:04.127Z,1017.99
2017-05-25T13:54:05.836Z,1017.99
2017-05-25T13:55:07.541Z,1017.91
2017-05-25T13:56:09.409Z,1017.89
2017-05-25T13:57:50.693Z,1017.65
2017-05-25T13:59:31.920Z,1017.49
2017-05-25T14:00:33.621Z,1017.65
2017-05-25T14:01:35.341Z,1017.77
2017-05-25T14:02:37.072Z,1017.88
2017-05-25T14:03:38.849Z,1017.91
2017-05-25T14:04:40.699Z,1017.89
2017-05-25T14:05:42.439Z,1017.87
2017-05-25T14:06:44.167Z,1017.80
2017-05-25T14:07:45.861Z,1017.74
2017-05-25T14:08:47.555Z,1017.74
2017-05-25T14:09:49.419Z,1017.81
2017-05-25T14:10:51.089Z,1017.73
2017-05-25T14:11:52.812Z,1017.67
2017-05-25T14:12:54.489Z,1017.67
2017-05-25T14:13:56.214Z,1017.73
2017-05-25T14:14:57.991Z,1017.82
2017-05-25T14:15:59.685Z,1017.80
2017-05-25T14:17:01.515Z,1017.82
2017-05-25T14:18:03.207Z,1017.80
2017-05-25T14:19:04.933Z,1017.83
2017-05-25T14:20:06.638Z,1017.83
2017-05-25T14:21:08.399Z,1017.79
2017-05-25T14:22:10.214Z,1017.83
2017-05-25T14:23:11.934Z,1017.85
2017-05-25T14:24:13.573Z,1017.84
2017-05-25T14:25:15.325Z,1017.75
2017-05-25T14:26:16.996Z,1017.77
2017-05-25T14:27:18.715Z,1017.83
2017-05-25T14:28:20.360Z,1017.74
2017-05-25T14:29:22.025Z,1017.74
2017-05-25T14:30:23.717Z,1017.71
2017-05-25T14:31:25.358Z,1017.73
2017-05-25T14:32:27.105Z,1017.74
2017-05-25T14:33:28.781Z,1017.73
2017-05-25T14:34:30.463Z,1017.74
2017-05-25T14:35:32.242Z,1017.70
2017-05-25T14:36:33.878Z,1017.71
2017-05-25T14:37:35.601Z,1017.69
2017-05-25T14:38:37.324Z,1017.69
2017-05-25T14:39:39.072Z,1017.68
2017-05-25T14:40:40.741Z,1017.65
2017-05-25T14:41:42.467Z,1017.71
2017-05-25T14:42:44.134Z,1017.57
2017-05-25T14:43:45.803Z,1017.55
2017-05-25T14:44:47.557Z,1017.47
2017-05-25T14:45:49.218Z,1017.52
2017-05-25T14:46:50.856Z,1017.60
2017-05-25T14:47:52.593Z,1017.66
2017-05-25T14:48:54.239Z,1017.72
2017-05-25T14:49:56.047Z,1017.74
2017-05-25T14:50:57.736Z,1017.69
2017-05-25T14:51:59.387Z,1017.63
2017-05-25T14:53:01.016Z,1017.55
2017-05-25T14:54:02.674Z,1017.55
2017-05-25T14:55:04.416Z,1017.53
2017-05-25T14:56:06.086Z,1017.56
2017-05-25T14:57:07.770Z,1017.56
2017-05-25T14:58:09.439Z,1017.52
2017-05-25T14:59:11.071Z,1017.56
2017-05-25T15:00:15.459Z,1017.67
2017-05-25T15:01:18.517Z,1017.73
2017-05-25T15:02:21.050Z,1017.71
2017-05-25T15:03:22.707Z,1017.63
2017-05-25T15:04:24.356Z,1017.55
2017-05-25T15:05:26.093Z,1017.52
2017-05-25T15:06:27.778Z,1017.53
2017-05-25T15:07:29.470Z,1017.52
2017-05-25T15:08:31.169Z,1017.48
2017-05-25T15:10:12.410Z,1017.23
2017-05-25T15:11:14.119Z,1017.29
2017-05-25T15:12:15.807Z,1017.46
2017-05-25T15:13:17.550Z,1017.47
2017-05-25T15:14:19.345Z,1017.48
2017-05-25T15:15:21.107Z,1017.52
2017-05-25T15:16:22.805Z,1017.59
2017-05-25T15:17:24.495Z,1017.62
2017-05-25T15:18:26.242Z,1017.59
2017-05-25T15:19:27.966Z,1017.52
2017-05-25T15:20:29.870Z,1017.47
2017-05-25T15:21:31.583Z,1017.44
2017-05-25T15:22:33.317Z,1017.47
2017-05-25T15:23:34.986Z,1017.56
2017-05-25T15:24:36.684Z,1017.56
2017-05-25T15:25:38.398Z,1017.48
2017-05-25T15:26:40.158Z,1017.46
2017-05-25T15:27:41.867Z,1017.48
2017-05-25T15:28:43.557Z,1017.48
2017-05-25T15:29:45.241Z,1017.48
2017-05-25T15:30:46.926Z,1017.53
2017-05-25T15:31:48.781Z,1017.51
2017-05-25T15:32:50.463Z,1017.52
2017-05-25T15:33:52.105Z,1017.46
2017-05-25T15:34:53.814Z,1017.45
2017-05-25T15:35:55.490Z,1017.42
2017-05-25T15:36:57.236Z,1017.42
2017-05-25T15:37:58.943Z,1017.42
2017-05-25T15:39:00.637Z,1017.40
2017-05-25T15:40:02.368Z,1017.36
2017-05-25T15:41:04.026Z,1017.32
2017-05-25T15:42:05.742Z,1017.32
2017-05-25T15:43:07.422Z,1017.32
2017-05-25T15:44:09.153Z,1017.31
2017-05-25T15:45:10.852Z,1017.29
2017-05-25T15:46:12.515Z,1017.29
2017-05-25T15:47:14.232Z,1017.23
2017-05-25T15:48:15.902Z,1017.20
2017-05-25T15:49:17.598Z,1017.21
2017-05-25T15:50:19.317Z,1017.27
2017-05-25T15:51:21.020Z,1017.26
2017-05-25T15:52:22.776Z,1017.28
2017-05-25T15:53:24.526Z,1017.28
2017-05-25T15:54:26.164Z,1017.29
2017-05-25T15:55:27.868Z,1017.25
2017-05-25T15:56:29.594Z,1017.21
2017-05-25T15:57:31.390Z,1017.13
2017-05-25T15:58:33.070Z,1017.14
2017-05-25T15:59:34.726Z,1017.12
2017-05-25T16:00:36.378Z,1017.19
2017-05-25T16:01:38.199Z,1017.17
2017-05-25T16:02:39.978Z,1017.18
2017-05-25T16:03:41.628Z,1017.20
2017-05-25T16:04:43.276Z,1017.19
2017-05-25T16:05:44.946Z,1017.27
2017-05-25T16:07:26.231Z,1017.04
2017-05-25T16:08:27.931Z,1017.12
2017-05-25T16:09:29.615Z,1017.19
2017-05-25T16:10:31.263Z,1017.14
2017-05-25T16:11:32.916Z,1017.15
2017-05-25T16:12:34.609Z,1017.16
2017-05-25T16:13:36.254Z,1017.17
2017-05-25T16:14:37.955Z,1017.20
2017-05-25T16:15:39.605Z,1017.20
2017-05-25T16:16:41.330Z,1017.17
2017-05-25T16:17:43.046Z,1017.13
2017-05-25T16:18:44.676Z,1017.12
2017-05-25T16:19:46.313Z,1017.12
2017-05-25T16:20:48.038Z,1017.09
2017-05-25T16:21:49.678Z,1017.04
2017-05-25T16:22:51.334Z,1017.04
2017-05-25T16:23:53.018Z,1017.03
2017-05-25T16:24:54.663Z,1017.02
2017-05-25T16:25:56.369Z,1017.03
2017-05-25T16:26:58.074Z,1016.98
2017-05-25T16:27:59.781Z,1017.04
2017-05-25T16:29:01.437Z,1016.99
2017-05-25T16:30:03.196Z,1016.99
2017-05-25T16:31:04.963Z,1017.03
2017-05-25T16:32:06.730Z,1016.96
2017-05-25T16:33:08.437Z,1016.97
2017-05-25T16:34:10.094Z,1017.01
2017-05-25T16:35:11.797Z,1017.01
2017-05-25T16:36:13.415Z,1017.00
2017-05-25T16:37:15.143Z,1016.96
2017-05-25T16:38:16.825Z,1016.92
2017-05-25T16:39:18.515Z,1016.91
2017-05-25T16:40:20.280Z,1016.94
2017-05-25T16:41:21.952Z,1016.99
2017-05-25T16:42:23.723Z,1017.00
2017-05-25T16:43:25.417Z,1016.89
2017-05-25T16:44:27.078Z,1016.92
2017-05-25T16:45:28.739Z,1016.91
2017-05-25T16:46:30.473Z,1016.86
2017-05-25T16:47:32.119Z,1016.89
2017-05-25T16:48:33.853Z,1016.91
2017-05-25T16:49:35.483Z,1016.93
2017-05-25T16:50:37.147Z,1016.94
2017-05-25T16:51:38.801Z,1016.95
2017-05-25T16:52:40.500Z,1016.94
2017-05-25T16:53:42.239Z,1017.00
2017-05-25T16:54:43.881Z,1017.02
2017-05-25T16:55:45.539Z,1016.98
2017-05-25T16:56:47.294Z,1017.00
2017-05-25T16:57:48.989Z,1016.99
2017-05-25T16:58:50.683Z,1016.94
2017-05-25T16:59:52.370Z,1016.94
2017-05-25T17:00:54.034Z,1016.92
2017-05-25T17:01:55.703Z,1016.95
2017-05-25T17:02:57.392Z,1016.94
2017-05-25T17:03:59.137Z,1016.93
2017-05-25T17:05:00.792Z,1016.92
2017-05-25T17:06:02.474Z,1016.92
2017-05-25T17:07:04.168Z,1016.93
2017-05-25T17:08:05.802Z,1016.88
2017-05-25T17:09:07.527Z,1016.91
2017-05-25T17:10:09.257Z,1016.86
2017-05-25T17:11:10.932Z,1016.86
2017-05-25T17:12:12.543Z,1016.82
2017-05-25T17:13:14.213Z,1016.75
2017-05-25T17:14:15.923Z,1016.71
2017-05-25T17:15:17.582Z,1016.71
2017-05-25T17:16:19.265Z,1016.65
2017-05-25T17:17:20.999Z,1016.73
2017-05-25T17:18:22.620Z,1016.73
2017-05-25T17:19:24.281Z,1016.72
2017-05-25T17:20:25.892Z,1016.68
2017-05-25T17:21:27.557Z,1016.70
2017-05-25T17:22:29.301Z,1016.71
2017-05-25T17:23:30.979Z,1016.74
2017-05-25T17:24:32.598Z,1016.75
2017-05-25T17:25:34.247Z,1016.73
2017-05-25T17:26:35.926Z,1016.79
2017-05-25T17:27:37.704Z,1016.74
2017-05-25T17:28:39.399Z,1016.77
2017-05-25T17:29:41.107Z,1016.74
2017-05-25T17:30:42.790Z,1016.78
2017-05-25T17:31:44.494Z,1016.82
2017-05-25T17:32:46.230Z,1016.78
2017-05-25T17:33:48.017Z,1016.82
2017-05-25T17:34:49.715Z,1016.84
2017-05-25T17:35:51.403Z,1016.79
2017-05-25T17:36:53.055Z,1016.80
2017-05-25T17:37:54.778Z,1016.81
2017-05-25T17:38:56.440Z,1016.80
2017-05-25T17:39:58.145Z,1016.75
2017-05-25T17:40:59.920Z,1016.77
2017-05-25T17:42:01.631Z,1016.79
2017-05-25T17:43:03.287Z,1016.83
2017-05-25T17:44:04.957Z,1016.82
2017-05-25T17:45:06.710Z,1016.81
2017-05-25T17:46:08.466Z,1016.79
2017-05-25T17:47:10.158Z,1016.79
2017-05-25T17:48:11.853Z,1016.76
2017-05-25T17:49:13.517Z,1016.76
2017-05-25T17:50:15.174Z,1016.78
2017-05-25T17:51:16.919Z,1016.74
2017-05-25T17:52:18.694Z,1016.77
2017-05-25T17:53:20.348Z,1016.78
2017-05-25T17:54:21.990Z,1016.72
2017-05-25T17:55:23.681Z,1016.72
2017-05-25T17:56:25.355Z,1016.70
2017-05-25T17:57:27.159Z,1016.70
2017-05-25T17:58:28.831Z,1016.73
2017-05-25T17:59:30.493Z,1016.73
2017-05-25T18:00:32.186Z,1016.77
2017-05-25T18:01:33.845Z,1016.72
2017-05-25T18:02:35.603Z,1016.71
2017-05-25T18:03:37.274Z,1016.71
2017-05-25T18:04:38.950Z,1016.69
2017-05-25T18:05:40.592Z,1016.73
2017-05-25T18:06:42.243Z,1016.71
2017-05-25T18:07:43.946Z,1016.72
2017-05-25T18:08:45.623Z,1016.71
2017-05-25T18:09:47.408Z,1016.69
2017-05-25T18:10:49.062Z,1016.68
2017-05-25T18:11:50.712Z,1016.72
2017-05-25T18:12:52.394Z,1016.72
2017-05-25T18:13:54.060Z,1016.72
2017-05-25T18:14:55.788Z,1016.74
2017-05-25T18:15:57.473Z,1016.70
2017-05-25T18:16:59.177Z,1016.68
2017-05-25T18:18:00.902Z,1016.64
2017-05-25T18:19:02.563Z,1016.67
2017-05-25T18:20:04.348Z,1016.66
2017-05-25T18:21:06.082Z,1016.66
2017-05-25T18:22:07.812Z,1016.68
2017-05-25T18:23:09.547Z,1016.67
2017-05-25T18:24:11.198Z,1016.67
2017-05-25T18:25:12.980Z,1016.68
2017-05-25T18:26:14.784Z,1016.66
2017-05-25T18:27:16.357Z,1016.66
2017-05-25T18:28:18.076Z,1016.68
2017-05-25T18:29:19.791Z,1016.68
2017-05-25T18:30:21.563Z,1016.66
2017-05-25T18:31:23.270Z,1016.67
2017-05-25T18:32:24.950Z,1016.65
2017-05-25T18:33:26.700Z,1016.65
2017-05-25T18:34:28.480Z,1016.64
2017-05-25T18:35:30.890Z,1016.62
2017-05-25T18:36:32.575Z,1016.64
2017-05-25T18:37:34.206Z,1016.62
2017-05-25T18:38:35.891Z,1016.60
2017-05-25T18:39:37.615Z,1016.59
2017-05-25T18:40:39.323Z,1016.59
2017-05-25T18:41:41.030Z,1016.62
2017-05-25T18:42:42.698Z,1016.59
2017-05-25T18:43:44.496Z,1016.60
2017-05-25T18:44:46.140Z,1016.59
2017-05-25T18:45:47.899Z,1016.58
2017-05-25T18:46:49.596Z,1016.59
2017-05-25T18:48:31.208Z,1016.40
2017-05-25T18:49:32.870Z,1016.47
2017-05-25T18:50:34.555Z,1016.52
2017-05-25T18:51:36.249Z,1016.58
2017-05-25T18:52:37.938Z,1016.59
2017-05-25T18:53:39.698Z,1016.61
2017-05-25T18:54:41.343Z,1016.64
2017-05-25T18:55:43.002Z,1016.65
2017-05-25T18:56:44.656Z,1016.62
2017-05-25T18:57:46.397Z,1016.62
2017-05-25T18:58:48.058Z,1016.68
2017-05-25T18:59:49.767Z,1016.65
2017-05-25T19:00:51.461Z,1016.68
2017-05-25T19:01:53.146Z,1016.66
2017-05-25T19:02:54.851Z,1016.66
2017-05-25T19:03:56.540Z,1016.67
2017-05-25T19:04:58.245Z,1016.69
2017-05-25T19:05:59.969Z,1016.68
2017-05-25T19:07:01.633Z,1016.69
2017-05-25T19:08:03.352Z,1016.71
2017-05-25T19:09:04.986Z,1016.67
2017-05-25T19:10:06.686Z,1016.72
2017-05-25T19:11:08.394Z,1016.72
2017-05-25T19:12:10.084Z,1016.73
2017-05-25T19:13:11.782Z,1016.73
2017-05-25T19:14:13.462Z,1016.76
2017-05-25T19:15:15.157Z,1016.74
2017-05-25T19:16:16.845Z,1016.72
2017-05-25T19:17:18.535Z,1016.73
2017-05-25T19:18:20.243Z,1016.71
2017-05-25T19:19:21.908Z,1016.77
2017-05-25T19:20:23.574Z,1016.72
2017-05-25T19:21:25.255Z,1016.77
2017-05-25T19:22:26.913Z,1016.78
2017-05-25T19:23:28.610Z,1016.75
2017-05-25T19:24:30.498Z,1016.76
2017-05-25T19:25:32.119Z,1016.77
2017-05-25T19:26:33.839Z,1016.80
2017-05-25T19:27:35.553Z,1016.79
2017-05-25T19:28:37.296Z,1016.80
2017-05-25T19:29:38.989Z,1016.81
2017-05-25T19:30:40.678Z,1016.83
2017-05-25T19:31:42.341Z,1016.82
2017-05-25T19:32:43.996Z,1016.81